Time;durP1;ratioP1;P1;durP2;ratioP2;P2;SDS_P1;SDS_P2;PMS_P1;PMS_P2;Temp;Humidity;BMP_temperature;BMP_pressure;BME280_temperature;BME280_humidity;BME280_pressure;Samples;Min_cycle;Max_cycle;Signal;HPM_P1;HPM_P2
2022/01/10 00:01:16;;;;;;;23.20;10.02;;;3.80;99.90;;;5.05;100.00;99955.06;5074760;28;20046;-79
2022/01/10 00:03:42;;;;;;;26.52;10.02;;;3.80;99.90;;;4.99;100.00;99951.69;5056803;28;20078;-80
2022/01/10 00:06:08;;;;;;;26.60;9.90;;;3.80;99.90;;;4.97;100.00;99956.78;5074989;28;20029;-81
2022/01/10 00:08:37;;;;;;;24.02;9.45;;;3.80;99.90;;;5.01;100.00;99966.00;5056921;28;20024;-78
2022/01/10 00:11:03;;;;;;;24.00;9.77;;;3.80;99.90;;;4.96;100.00;99959.88;5056512;28;20101;-76
2022/01/10 00:13:29;;;;;;;25.48;10.25;;;3.80;99.90;;;4.97;100.00;99967.03;5074709;28;20024;-78
2022/01/10 00:15:55;;;;;;;23.67;9.88;;;3.80;99.90;;;4.94;100.00;99965.75;5074486;28;20043;-80
2022/01/10 00:18:20;;;;;;;27.38;9.73;;;3.80;99.90;;;5.04;100.00;99965.31;5074737;28;20435;-80
2022/01/10 00:20:46;;;;;;;25.80;9.48;;;3.80;99.90;;;5.03;100.00;99965.69;5074334;28;20024;-78
2022/01/10 00:23:12;;;;;;;27.40;11.25;;;3.80;99.90;;;5.02;100.00;99973.16;5074910;28;20080;-78
2022/01/10 00:25:38;;;;;;;26.15;10.00;;;3.80;99.90;;;5.07;100.00;99983.25;5044683;28;20045;-80
2022/01/10 00:28:04;;;;;;;20.98;8.55;;;3.80;99.90;;;5.05;100.00;99974.44;5034198;28;20036;-80
2022/01/10 00:30:30;;;;;;;24.02;10.48;;;3.80;99.90;;;5.04;100.00;99979.16;5034969;28;20043;-80
2022/01/10 00:32:56;;;;;;;23.02;9.88;;;3.80;99.90;;;5.07;100.00;99986.00;5017060;28;20021;-79
2022/01/10 00:35:22;;;;;;;24.35;10.00;;;3.80;99.90;;;4.93;100.00;99982.69;5034798;28;20030;-78
2022/01/10 00:37:49;;;;;;;26.38;10.00;;;3.80;99.90;;;5.04;100.00;99987.47;5033664;28;20551;-81
2022/01/10 00:40:18;;;;;;;19.50;9.73;;;3.80;99.90;;;5.07;100.00;99991.53;5034199;28;20396;-80
2022/01/10 00:42:54;;;;;;;24.25;10.52;;;3.80;99.90;;;5.04;100.00;99990.22;5016729;28;20079;-80
2022/01/10 00:45:26;;;;;;;24.42;10.07;;;3.80;99.90;;;5.01;100.00;99993.69;5018104;28;20492;-80
2022/01/10 00:48:01;;;;;;;21.10;9.48;;;3.80;99.90;;;4.99;100.00;99998.75;5037329;28;20025;-76
2022/01/10 00:50:29;;;;;;;25.80;10.90;;;3.70;99.90;;;4.93;100.00;100008.41;5020509;28;20029;-80
2022/01/10 00:52:56;;;;;;;23.90;10.57;;;3.70;99.90;;;4.91;100.00;100009.88;5037872;28;20044;-79
2022/01/10 00:55:22;;;;;;;27.90;11.30;;;3.70;99.90;;;4.92;100.00;100008.72;5038000;28;20021;-78
2022/01/10 00:57:50;;;;;;;21.95;10.60;;;3.70;99.90;;;4.97;100.00;100020.44;5038186;28;20116;-79
2022/01/10 01:00:17;;;;;;;28.63;10.70;;;3.70;99.90;;;4.94;100.00;100021.09;5038301;28;20065;-78
2022/01/10 01:02:46;;;;;;;23.65;10.60;;;3.70;99.90;;;4.96;100.00;100024.34;5019810;28;20078;-80
2022/01/10 01:05:18;;;;;;;25.52;11.38;;;3.70;99.90;;;4.94;100.00;100026.63;5037452;28;20081;-78
2022/01/10 01:07:44;;;;;;;22.55;10.65;;;3.60;99.90;;;4.95;100.00;100027.41;5037805;28;20030;-80
2022/01/10 01:15:44;;;;;;;26.83;11.02;;;3.70;99.90;;;4.90;100.00;100042.28;5037656;28;20477;-80
2022/01/10 01:18:31;;;;;;;28.90;11.48;;;3.60;99.90;;;4.89;100.00;100051.72;5020049;28;20096;-82
2022/01/10 01:24:02;;;;;;;24.73;10.98;;;3.60;99.90;;;4.87;100.00;100056.78;5050698;28;20082;-78
2022/01/10 01:26:32;;;;;;;32.17;11.77;;;3.60;99.90;;;4.87;100.00;100064.28;5090608;28;20024;-77
2022/01/10 01:29:04;;;;;;;24.98;11.57;;;3.60;99.90;;;4.85;100.00;100070.13;5061600;28;20028;-78
2022/01/10 01:31:30;;;;;;;28.50;11.23;;;3.60;99.90;;;4.80;100.00;100081.41;5075038;28;20025;-80
2022/01/10 01:33:56;;;;;;;22.08;12.05;;;3.50;99.90;;;4.79;100.00;100085.31;5058616;28;20032;-80
2022/01/10 01:36:25;;;;;;;26.15;12.07;;;3.50;99.90;;;4.75;100.00;100090.69;5076570;28;20025;-78
2022/01/10 01:38:53;;;;;;;31.70;12.13;;;3.50;99.90;;;4.66;100.00;100089.91;5077231;28;20086;-81
2022/01/10 01:43:51;;;;;;;30.45;11.70;;;3.40;99.90;;;4.64;100.00;100102.47;5076267;28;20028;-80
2022/01/10 01:46:21;;;;;;;27.67;11.88;;;3.40;99.90;;;4.59;100.00;100108.97;5058134;28;20063;-78
2022/01/10 01:48:50;;;;;;;29.80;11.48;;;3.30;99.90;;;4.59;100.00;100108.97;5076372;28;20119;-78
2022/01/10 01:51:17;;;;;;;33.47;13.88;;;3.30;99.90;;;4.58;100.00;100112.91;5076365;28;20037;-76
2022/01/10 01:53:46;;;;;;;33.80;13.13;;;3.30;99.90;;;4.57;100.00;100110.47;5075768;28;20339;-80
2022/01/10 01:56:15;;;;;;;33.95;12.45;;;3.30;99.90;;;4.54;100.00;100125.75;5075069;28;20029;-78
2022/01/10 01:58:44;;;;;;;26.13;12.93;;;3.30;99.90;;;4.55;100.00;100127.41;5057647;28;20024;-81
2022/01/10 02:01:16;;;;;;;31.85;13.70;;;3.30;99.90;;;4.54;100.00;100134.06;5076045;28;20025;-78
2022/01/10 02:03:47;;;;;;;29.33;12.98;;;3.30;99.90;;;4.56;100.00;100133.75;5075604;28;20036;-80
2022/01/10 02:06:16;;;;;;;26.92;12.05;;;3.30;99.90;;;4.54;100.00;100139.59;5074969;28;20041;-81
2022/01/10 02:08:43;;;;;;;31.10;13.43;;;3.30;99.90;;;4.52;100.00;100141.06;5074198;28;20505;-80
2022/01/10 02:11:14;;;;;;;28.52;13.43;;;3.30;99.90;;;4.50;100.00;100146.09;5075006;28;20048;-80
2022/01/10 02:13:42;;;;;;;32.75;13.73;;;3.30;99.90;;;4.47;100.00;100146.75;5074813;28;20089;-79
2022/01/10 02:16:11;;;;;;;35.10;12.68;;;3.20;99.90;;;4.41;100.00;100156.38;5074844;28;20474;-81
2022/01/10 02:18:38;;;;;;;33.97;13.23;;;3.20;99.90;;;4.35;100.00;100155.75;5075159;28;20432;-80
2022/01/10 02:21:05;;;;;;;30.92;13.35;;;3.10;99.90;;;4.23;100.00;100156.44;5074695;28;20093;-78
2022/01/10 02:23:33;;;;;;;29.02;13.02;;;3.00;99.90;;;4.17;100.00;100154.16;5075021;28;20028;-80
2022/01/10 02:26:03;;;;;;;30.95;13.60;;;3.00;99.90;;;4.11;100.00;100166.53;5044817;28;20066;-78
2022/01/10 02:28:30;;;;;;;30.85;13.52;;;2.90;99.90;;;4.00;100.00;100168.81;5053448;28;20507;-79
2022/01/10 02:30:59;;;;;;;36.40;13.60;;;2.80;99.90;;;3.94;100.00;100170.13;5036556;28;20408;-79
2022/01/10 02:33:31;;;;;;;39.28;15.18;;;2.70;99.90;;;3.89;100.00;100178.56;5036798;28;20021;-80
2022/01/10 02:36:14;;;;;;;45.17;16.25;;;2.70;99.90;;;3.90;100.00;100184.88;5054732;28;20484;-78
2022/01/10 02:38:59;;;;;;;33.65;15.85;;;2.70;99.90;;;3.90;100.00;100187.66;5054511;28;20017;-78
2022/01/10 02:41:32;;;;;;;31.58;14.30;;;2.70;99.90;;;3.93;100.00;100192.53;5037194;28;20112;-80
2022/01/10 02:44:03;;;;;;;41.90;16.08;;;2.70;99.90;;;3.94;100.00;100196.94;5036980;28;20064;-78
2022/01/10 02:46:38;;;;;;;31.42;14.95;;;2.70;99.90;;;3.97;100.00;100207.31;5036638;28;20387;-81
2022/01/10 02:49:24;;;;;;;31.67;15.60;;;2.70;99.90;;;3.97;100.00;100207.31;5035989;28;20029;-80
2022/01/10 02:51:52;;;;;;;34.67;16.05;;;2.70;99.90;;;3.95;100.00;100215.13;5054318;28;20037;-78
2022/01/10 02:54:18;;;;;;;39.80;14.68;;;2.70;99.90;;;3.89;100.00;100222.75;5036322;28;20029;-79
2022/01/10 02:56:55;;;;;;;33.42;15.13;;;2.70;99.90;;;3.82;100.00;100216.09;5053909;28;20028;-79
2022/01/10 02:59:25;;;;;;;31.45;13.30;;;2.60;99.90;;;3.78;100.00;100223.41;5036127;28;20120;-80
2022/01/10 03:01:55;;;;;;;37.55;15.35;;;2.60;99.90;;;3.69;100.00;100235.25;5052494;28;20033;-80
2022/01/10 03:04:21;;;;;;;40.67;14.73;;;2.50;99.90;;;3.61;100.00;100235.22;5036216;28;20028;-77
2022/01/10 03:06:53;;;;;;;41.75;16.17;;;2.40;99.90;;;3.54;100.00;100243.16;5052471;28;20048;-78
2022/01/10 03:09:19;;;;;;;34.95;13.70;;;2.30;99.90;;;3.54;100.00;100246.75;5054300;28;20059;-80
2022/01/10 03:11:48;;;;;;;36.03;14.57;;;2.30;99.90;;;3.51;100.00;100244.63;5035853;28;20112;-77
2022/01/10 03:14:13;;;;;;;37.40;14.70;;;2.30;99.90;;;3.48;100.00;100248.03;5054012;28;20028;-78
2022/01/10 03:16:40;;;;;;;32.47;14.35;;;2.30;99.90;;;3.50;100.00;100253.25;5054198;28;20040;-78
2022/01/10 03:19:06;;;;;;;43.45;17.05;;;2.30;99.90;;;3.47;100.00;100254.69;5052513;28;20037;-79
2022/01/10 03:21:33;;;;;;;42.92;17.13;;;2.30;99.90;;;3.49;100.00;100251.63;5036056;28;20044;-79
2022/01/10 03:24:02;;;;;;;36.65;15.82;;;2.30;99.90;;;3.53;100.00;100263.66;5035958;28;20028;-81
2022/01/10 03:26:32;;;;;;;33.90;16.15;;;2.30;99.90;;;3.48;100.00;100261.03;5069404;28;20032;-79
2022/01/10 03:28:57;;;;;;;39.88;15.32;;;2.30;99.90;;;3.42;100.00;100265.88;5073435;28;20043;-80
2022/01/10 03:31:24;;;;;;;40.50;16.88;;;2.20;99.90;;;3.37;100.00;100279.81;5073511;28;20024;-80
2022/01/10 03:33:50;;;;;;;45.60;17.23;;;2.20;99.90;;;3.31;100.00;100283.06;5073909;28;20044;-78
2022/01/10 03:36:16;;;;;;;43.25;18.17;;;2.10;99.90;;;3.25;100.00;100281.56;5072148;28;20403;-80
2022/01/10 03:38:42;;;;;;;43.78;17.20;;;2.10;99.90;;;3.21;100.00;100275.06;5073040;28;20115;-79
2022/01/10 03:41:11;;;;;;;40.30;17.77;;;2.10;99.90;;;3.17;100.00;100283.97;5054906;28;20539;-80
2022/01/10 03:43:37;;;;;;;52.67;19.33;;;2.00;99.90;;;3.02;100.00;100284.38;5055246;28;20028;-78
2022/01/10 03:46:06;;;;;;;47.75;17.42;;;2.00;99.90;;;3.06;100.00;100287.31;5054864;28;20102;-79
2022/01/10 03:48:33;;;;;;;38.92;17.23;;;2.00;99.90;;;3.06;100.00;100295.59;5072870;28;20028;-80
2022/01/10 03:50:59;;;;;;;47.60;18.08;;;1.90;99.90;;;2.99;100.00;100289.72;5072823;28;20112;-80
2022/01/10 03:53:24;;;;;;;38.30;17.25;;;1.90;99.90;;;2.93;100.00;100296.50;5055092;28;20056;-80
2022/01/10 03:55:50;;;;;;;49.65;18.50;;;1.80;99.90;;;2.89;100.00;100296.31;5054865;28;20462;-78
2022/01/10 03:58:16;;;;;;;42.60;18.23;;;1.80;99.90;;;2.89;100.00;100299.06;5075033;28;20040;-80
2022/01/10 04:00:48;;;;;;;46.05;19.63;;;1.70;99.90;;;2.80;100.00;100300.13;5073337;28;20564;-78
2022/01/10 04:03:17;;;;;;;44.28;18.60;;;1.70;99.90;;;2.75;100.00;100295.59;5072969;28;20028;-80
2022/01/10 04:05:48;;;;;;;44.90;17.27;;;1.70;99.90;;;2.76;100.00;100307.44;5072857;28;20089;-79
2022/01/10 04:08:14;;;;;;;47.22;19.48;;;1.60;99.90;;;2.73;100.00;100302.56;5072088;28;20033;-80
2022/01/10 04:10:40;;;;;;;39.92;17.10;;;1.60;99.90;;;2.71;100.00;100313.06;5072546;28;20032;-79
2022/01/10 04:13:07;;;;;;;40.33;16.95;;;1.50;99.90;;;2.70;100.00;100315.00;5072881;28;20036;-77
2022/01/10 04:15:33;;;;;;;44.80;17.13;;;1.50;99.90;;;2.68;100.00;100322.78;5072626;28;20471;-78
2022/01/10 04:18:01;;;;;;;40.35;17.92;;;1.50;99.90;;;2.57;100.00;100326.91;5072259;28;20032;-79
2022/01/10 04:20:27;;;;;;;44.53;18.80;;;1.40;99.90;;;2.51;100.00;100333.66;5071973;28;20024;-80
2022/01/10 04:22:54;;;;;;;43.33;18.58;;;1.30;99.90;;;2.44;100.00;100336.84;5054340;28;20041;-79
2022/01/10 04:25:22;;;;;;;46.75;20.20;;;1.30;99.90;;;2.32;100.00;100339.34;5047659;28;20040;-78
2022/01/10 04:27:48;;;;;;;70.50;26.02;;;1.20;99.90;;;2.22;100.00;100352.53;5052137;28;20131;-80
2022/01/10 04:30:15;;;;;;;59.50;23.83;;;1.10;99.90;;;2.09;100.00;100355.03;5052416;28;20523;-78
2022/01/10 04:32:42;;;;;;;50.53;22.13;;;1.00;99.90;;;2.06;100.00;100363.09;5052160;28;20064;-79
2022/01/10 04:35:09;;;;;;;48.72;18.83;;;0.90;99.90;;;2.04;100.00;100355.16;5052278;28;20299;-78
2022/01/10 04:37:35;;;;;;;41.33;17.73;;;0.90;99.90;;;1.96;100.00;100358.59;5034236;28;20365;-80
2022/01/10 04:40:07;;;;;;;43.88;17.40;;;0.80;99.90;;;1.88;100.00;100369.53;5034658;28;20029;-79
2022/01/10 04:42:36;;;;;;;40.63;17.67;;;0.80;99.90;;;1.88;100.00;100372.31;5052170;28;20396;-80
2022/01/10 04:45:06;;;;;;;40.80;17.15;;;0.70;99.90;;;1.87;100.00;100376.97;5034812;28;20036;-79
2022/01/10 04:47:33;;;;;;;38.03;16.42;;;0.70;99.90;;;1.77;100.00;100384.63;5051351;28;20095;-79
2022/01/10 04:52:45;;;;;;;36.45;16.15;;;0.60;99.90;;;1.72;100.00;100401.25;5052724;28;20395;-79
2022/01/10 04:55:12;;;;;;;42.13;16.85;;;0.60;99.90;;;1.69;100.00;100407.38;5053123;28;20059;-80
2022/01/10 04:57:38;;;;;;;49.20;17.42;;;0.60;99.90;;;1.68;100.00;100417.56;5052510;28;20055;-78
2022/01/10 05:00:10;;;;;;;46.95;17.67;;;0.60;99.90;;;1.65;100.00;100426.44;5035279;28;20033;-79
2022/01/10 05:02:37;;;;;;;45.13;18.55;;;0.60;99.90;;;1.61;100.00;100430.13;5051229;28;20033;-78
2022/01/10 05:05:07;;;;;;;42.35;18.38;;;0.50;99.90;;;1.47;100.00;100433.66;5053323;28;20036;-78
2022/01/10 05:07:33;;;;;;;47.88;18.63;;;0.40;99.90;;;1.30;100.00;100443.59;5034585;28;20040;-80
2022/01/10 05:09:59;;;;;;;50.70;18.38;;;0.30;99.90;;;1.17;100.00;100439.69;5040797;28;20115;-79
2022/01/10 05:12:27;;;;;;;42.25;17.10;;;0.20;99.90;;;1.22;100.00;100447.06;5052508;28;20052;-80
2022/01/10 05:14:53;;;;;;;45.90;17.55;;;0.20;99.90;;;1.29;100.00;100456.53;5061930;28;20029;-79
2022/01/10 05:17:24;;;;;;;61.17;21.25;;;0.20;99.90;;;1.33;100.00;100454.81;5063325;28;20197;-79
2022/01/10 05:19:50;;;;;;;54.75;20.10;;;0.20;99.90;;;1.37;100.00;100458.63;5060034;28;20033;-77
2022/01/10 05:22:19;;;;;;;50.17;18.70;;;0.30;99.90;;;1.35;100.00;100463.59;5053591;28;20048;-79
2022/01/10 05:24:54;;;;;;;57.97;20.30;;;0.30;99.90;;;1.36;100.00;100473.47;5056234;28;20033;-80
2022/01/10 05:27:20;;;;;;;49.15;20.48;;;0.30;99.90;;;1.35;100.00;100482.84;5055396;28;20033;-80
2022/01/10 05:29:46;;;;;;;50.35;19.40;;;0.20;99.90;;;1.33;100.00;100478.78;5074112;28;20488;-78
2022/01/10 05:32:15;;;;;;;54.63;19.25;;;0.20;99.90;;;1.24;100.00;100484.16;5073704;28;20024;-80
2022/01/10 05:34:40;;;;;;;58.60;22.02;;;0.20;99.90;;;1.32;100.00;100490.88;5060384;28;20052;-76
2022/01/10 05:37:06;;;;;;;70.38;24.17;;;0.30;99.90;;;1.48;100.00;100500.50;5076464;28;20094;-77
2022/01/10 05:39:32;;;;;;;75.70;24.80;;;0.40;99.90;;;1.55;100.00;100501.78;5077418;28;20060;-82
2022/01/10 05:41:58;;;;;;;65.80;22.52;;;0.50;99.90;;;1.63;100.00;100516.78;5097886;28;20048;-81
2022/01/10 05:44:24;;;;;;;65.75;23.75;;;0.50;99.90;;;1.63;100.00;100514.03;5080032;28;20031;-77
2022/01/10 05:46:51;;;;;;;62.33;23.98;;;0.50;99.90;;;1.61;100.00;100516.25;5087037;28;20029;-78
2022/01/10 05:49:24;;;;;;;64.53;23.35;;;0.60;99.90;;;1.64;100.00;100526.66;5076768;28;20040;-81
2022/01/10 05:51:51;;;;;;;72.70;25.15;;;0.60;99.90;;;1.68;100.00;100527.69;5057542;28;20126;-79
2022/01/10 05:54:17;;;;;;;74.55;28.08;;;0.60;99.90;;;1.69;100.00;100529.34;5075814;28;20035;-80
2022/01/10 05:56:43;;;;;;;64.82;25.33;;;0.60;99.90;;;1.72;100.00;100541.69;5077199;28;20032;-79
2022/01/10 05:59:11;;;;;;;72.43;24.85;;;0.70;99.90;;;1.75;100.00;100552.91;5075986;28;20036;-79
2022/01/10 06:01:37;;;;;;;73.20;24.98;;;0.70;99.90;;;1.76;100.00;100554.56;5075706;28;20039;-78
2022/01/10 06:04:03;;;;;;;69.75;24.48;;;0.70;99.90;;;1.76;100.00;100559.25;5075646;28;20037;-80
2022/01/10 06:06:30;;;;;;;64.15;25.52;;;0.70;99.90;;;1.75;100.00;100563.94;5076186;28;20127;-81
2022/01/10 06:08:56;;;;;;;75.88;25.35;;;0.70;99.90;;;1.77;100.00;100567.19;5058685;28;20047;-82
2022/01/10 06:11:22;;;;;;;52.90;22.65;;;0.70;99.90;;;1.72;100.00;100569.22;5075788;28;20489;-79
2022/01/10 06:13:49;;;;;;;47.00;20.38;;;0.60;99.90;;;1.64;100.00;100569.91;5075603;28;20028;-81
2022/01/10 06:16:16;;;;;;;51.53;19.80;;;0.50;99.90;;;1.58;100.00;100580.19;5057267;28;20411;-79
2022/01/10 06:18:42;;;;;;;50.47;19.85;;;0.50;99.90;;;1.45;100.00;100584.50;5074795;28;20063;-79
2022/01/10 06:21:08;;;;;;;62.30;21.63;;;0.40;99.90;;;1.39;100.00;100590.38;5057125;28;20028;-79
2022/01/10 06:23:33;;;;;;;58.92;21.90;;;0.30;99.90;;;1.35;100.00;100594.88;5057050;28;20089;-79
2022/01/10 06:25:59;;;;;;;69.45;23.23;;;0.20;99.90;;;1.39;100.00;100596.72;5044975;28;20037;-81
2022/01/10 06:28:25;;;;;;;62.10;24.98;;;0.30;99.90;;;1.48;100.00;100607.84;5053666;28;20112;-81
2022/01/10 06:30:51;;;;;;;69.95;26.35;;;0.40;99.90;;;1.56;100.00;100605.25;5056029;28;20451;-80
2022/01/10 06:33:17;;;;;;;71.43;25.83;;;0.50;99.90;;;1.60;100.00;100616.50;5053766;28;20127;-82
2022/01/10 06:35:44;;;;;;;74.25;27.27;;;0.50;99.90;;;1.64;100.00;100619.47;5053184;28;20115;-79
2022/01/10 06:38:10;;;;;;;97.40;28.88;;;0.50;99.90;;;1.68;100.00;100629.56;5053719;28;20037;-81
2022/01/10 06:40:36;;;;;;;71.88;27.67;;;0.60;99.90;;;1.73;100.00;100636.94;5054494;28;20037;-79
2022/01/10 06:43:02;;;;;;;70.10;27.17;;;0.60;99.90;;;1.73;100.00;100631.44;5036311;28;20039;-79
2022/01/10 06:45:34;;;;;;;68.18;26.58;;;0.70;99.90;;;1.79;100.00;100633.81;5052873;28;20036;-81
2022/01/10 06:48:04;;;;;;;79.13;28.30;;;0.70;99.90;;;1.79;100.00;100644.81;5054198;28;20029;-78
2022/01/10 06:50:30;;;;;;;75.38;29.13;;;0.70;99.90;;;1.79;100.00;100650.34;5036212;28;20036;-83
2022/01/10 06:52:57;;;;;;;71.70;28.38;;;0.80;99.90;;;1.88;100.00;100645.78;5036983;28;20128;-81
2022/01/10 06:55:24;;;;;;;73.88;27.55;;;0.80;99.90;;;1.93;100.00;100653.94;5054422;28;20033;-79
2022/01/10 06:57:53;;;;;;;72.45;27.88;;;0.80;99.90;;;1.93;100.00;100661.38;5035603;28;20396;-83
2022/01/10 07:00:20;;;;;;;68.45;26.83;;;0.90;99.90;;;1.96;100.00;100664.34;5052589;28;20128;-81
2022/01/10 07:02:46;;;;;;;74.75;29.05;;;0.90;99.90;;;2.04;100.00;100674.69;5035611;28;20040;-82
2022/01/10 07:05:12;;;;;;;61.45;26.83;;;1.00;99.90;;;2.13;100.00;100678.41;5053730;28;20040;-83
2022/01/10 07:07:45;;;;;;;79.38;28.92;;;1.00;99.90;;;2.20;100.00;100691.78;5062501;28;20060;-83
2022/01/10 07:10:11;;;;;;;68.45;28.70;;;1.10;99.90;;;2.27;100.00;100705.19;5061726;28;20017;-80
2022/01/10 07:12:37;;;;;;;78.38;30.38;;;1.20;99.90;;;2.38;100.00;100703.88;5056624;28;20021;-78
2022/01/10 07:15:04;;;;;;;73.53;28.98;;;1.30;99.90;;;2.42;100.00;100714.00;5037520;28;20475;-81
2022/01/10 07:17:30;;;;;;;79.85;29.42;;;1.30;99.90;;;2.46;100.00;100720.56;5036977;28;20033;-81
2022/01/10 07:19:56;;;;;;;76.40;28.95;;;1.40;99.90;;;2.57;100.00;100727.50;5054413;28;20040;-79
2022/01/10 07:22:22;;;;;;;75.82;28.92;;;1.40;99.90;;;2.59;100.00;100733.56;5054584;28;20547;-82
2022/01/10 07:24:48;;;;;;;76.68;31.27;;;1.50;99.90;;;2.69;100.00;100749.09;5037990;28;20120;-80
2022/01/10 07:27:17;;;;;;;82.22;30.52;;;1.50;99.90;;;2.75;100.00;100749.81;5056320;28;20048;-79
2022/01/10 07:29:53;;;;;;;;;;;;;;;;;;;;;
2022/01/10 07:32:40;;;;;;;73.03;29.17;;;1.70;99.90;;;2.87;100.00;100769.44;5077380;28;20088;-82
2022/01/10 07:35:07;;;;;;;73.07;28.80;;;1.70;99.90;;;2.88;100.00;100771.09;5076751;28;20028;-81
2022/01/10 07:37:33;;;;;;;68.90;27.45;;;1.70;99.90;;;2.88;100.00;100773.84;5056911;28;20028;-79
2022/01/10 07:39:59;;;;;;;76.43;29.40;;;1.70;99.90;;;2.88;100.00;100788.47;5075013;28;20099;-82
2022/01/10 07:42:25;;;;;;;79.35;29.38;;;1.70;99.90;;;2.84;100.00;100792.94;5074478;28;20060;-79
2022/01/10 07:44:54;;;;;;;72.90;29.65;;;1.70;99.90;;;2.96;100.00;100790.50;5055958;28;20119;-79
2022/01/10 07:47:20;;;;;;;81.43;27.20;;;1.80;99.90;;;3.02;100.00;100794.81;5074150;28;20033;-83
2022/01/10 07:49:46;;;;;;;68.63;30.02;;;1.90;99.90;;;3.07;100.00;100808.53;5072979;28;20029;-83
2022/01/10 07:52:18;;;;;;;79.22;30.13;;;1.90;99.90;;;3.15;100.00;100809.75;5056329;28;20396;-82
2022/01/10 07:54:44;;;;;;;74.78;28.65;;;2.00;99.90;;;3.17;100.00;100807.53;5074371;28;20028;-80
2022/01/10 07:57:10;;;;;;;71.55;28.15;;;2.10;99.90;;;3.21;100.00;100804.97;5054844;28;20032;-82
2022/01/10 07:59:36;;;;;;;74.03;28.88;;;2.10;99.90;;;3.26;100.00;100821.44;5073168;28;20153;-78
2022/01/10 08:02:03;;;;;;;71.53;26.88;;;2.10;99.90;;;3.29;100.00;100821.63;5055353;28;20225;-80
2022/01/10 08:04:29;;;;;;;69.85;25.42;;;2.10;99.90;;;3.28;100.00;100824.69;5056734;28;20032;-81
2022/01/10 08:06:57;;;;;;;73.18;25.92;;;2.10;99.90;;;3.33;100.00;100838.41;5074389;28;20369;-81
2022/01/10 08:09:26;;;;;;;74.50;26.58;;;2.20;99.90;;;3.33;100.00;100844.75;5055818;28;20078;-81
2022/01/10 08:12:00;;;;;;;65.95;25.75;;;2.20;99.90;;;3.36;100.00;100844.16;5055695;28;20035;-81
2022/01/10 08:14:31;;;;;;;69.78;26.67;;;2.20;99.90;;;3.49;100.00;100848.84;5057569;28;20107;-81
2022/01/10 08:16:59;;;;;;;67.50;25.83;;;2.30;99.90;;;3.53;100.00;100858.16;5056424;28;20348;-79
2022/01/10 08:19:32;;;;;;;67.68;26.83;;;2.30;99.90;;;3.57;100.00;100858.34;5073814;28;20054;-80
2022/01/10 08:22:04;;;;;;;65.95;25.60;;;2.30;99.90;;;3.62;100.00;100864.63;5074886;28;20085;-81
2022/01/10 08:24:32;;;;;;;59.05;23.20;;;2.30;99.90;;;3.68;100.00;100868.91;5075403;28;20397;-85
2022/01/10 08:26:58;;;;;;;53.45;22.60;;;2.40;99.90;;;3.71;100.00;100878.53;5033765;28;20036;-82
2022/01/10 08:29:29;;;;;;;46.50;20.95;;;2.40;99.90;;;3.72;100.00;100878.19;5032555;28;20018;-81
2022/01/10 08:31:58;;;;;;;59.83;24.02;;;2.40;99.90;;;3.81;100.00;100888.56;5015778;28;20029;-82
2022/01/10 08:34:27;;;;;;;61.95;24.75;;;2.50;99.90;;;3.80;100.00;100901.53;5016177;28;20055;-80
2022/01/10 08:36:54;;;;;;;56.90;22.20;;;2.50;99.90;;;3.85;100.00;100918.03;5032450;28;20029;-79
2022/01/10 08:39:21;;;;;;;55.58;23.95;;;2.50;99.90;;;3.91;100.00;100911.28;5033571;28;20480;-79
2022/01/10 08:41:47;;;;;;;58.38;24.17;;;2.60;99.90;;;3.90;100.00;100911.56;5033282;28;20033;-79
2022/01/10 08:44:14;;;;;;;55.55;23.80;;;2.60;99.90;;;3.89;100.00;100918.22;5033434;28;20032;-80
2022/01/10 08:46:41;;;;;;;57.05;22.50;;;2.50;99.90;;;3.89;100.00;100913.50;5033780;28;20104;-79
2022/01/10 08:49:07;;;;;;;63.42;23.67;;;2.50;99.90;;;3.90;100.00;100920.69;5032384;28;20072;-80
2022/01/10 08:51:34;;;;;;;48.72;21.92;;;2.50;99.90;;;3.86;100.00;100918.81;5055005;23;20037;-86
2022/01/10 08:54:03;;;;;;;47.58;22.35;;;2.50;99.90;;;3.87;100.00;100926.00;5050232;28;20104;-83
2022/01/10 08:56:32;;;;;;;42.38;21.85;;;2.50;99.90;;;3.91;100.00;100933.38;5076602;28;20020;-85
2022/01/10 08:58:59;;;;;;;54.38;25.55;;;2.60;99.90;;;3.94;100.00;100924.47;5060154;28;20503;-85
2022/01/10 09:01:26;;;;;;;55.42;23.88;;;2.60;99.90;;;3.98;100.00;100933.75;5079107;28;20033;-85
2022/01/10 09:03:54;;;;;;;55.05;22.90;;;2.60;99.90;;;4.06;100.00;100940.53;5061518;28;20020;-84
2022/01/10 09:06:22;;;;;;;60.55;24.35;;;2.70;99.90;;;4.11;100.00;100938.47;5080733;28;20028;-83
2022/01/10 09:08:51;;;;;;;54.30;24.25;;;2.90;99.90;;;4.20;100.00;100944.13;5065102;28;20032;-84
2022/01/10 09:11:17;;;;;;;45.05;20.70;;;2.90;99.90;;;4.29;100.00;100939.50;5081472;28;20029;-84
2022/01/10 09:13:46;;;;;;;46.97;20.92;;;3.00;99.90;;;4.43;100.00;100945.81;5082693;28;20059;-84
2022/01/10 09:16:14;;;;;;;55.65;22.02;;;3.10;99.90;;;4.58;100.00;100928.06;5082215;28;20024;-85
2022/01/10 09:18:40;;;;;;;53.13;22.02;;;3.20;99.90;;;4.86;100.00;100940.69;5082866;28;20024;-82
2022/01/10 09:21:07;;;;;;;60.28;23.42;;;3.40;99.90;;;5.32;100.00;100952.28;5082462;28;20039;-84
2022/01/10 09:23:34;;;;;;;45.15;21.50;;;3.80;99.90;;;5.41;100.00;100952.34;5097769;28;20037;-83
2022/01/10 09:26:10;;;;;;;50.25;22.67;;;3.90;99.90;;;5.53;100.00;100957.28;5099973;28;20025;-87
2022/01/10 09:28:44;;;;;;;50.05;21.15;;;4.10;99.90;;;5.44;100.00;100960.00;5085996;28;20411;-87
2022/01/10 09:31:20;;;;;;;53.38;21.73;;;4.10;99.90;;;5.75;100.00;100960.81;5085691;28;20529;-84
2022/01/10 09:33:52;;;;;;;42.05;19.30;;;4.40;99.90;;;6.06;100.00;100965.56;5085978;28;20028;-85
2022/01/10 09:36:20;;;;;;;46.67;20.42;;;4.50;99.90;;;6.25;100.00;100968.91;5086674;28;20100;-85
2022/01/10 09:38:49;;;;;;;44.67;19.05;;;4.70;99.90;;;6.31;100.00;100962.91;5086740;28;20498;-86
2022/01/10 09:41:19;;;;;;;42.40;19.98;;;4.90;99.90;;;6.73;100.00;100971.63;5086758;28;20038;-84
2022/01/10 09:43:59;;;;;;;38.97;18.48;;;5.10;99.90;;;6.97;99.82;100983.06;5069269;28;20036;-86
2022/01/10 09:46:27;;;;;;;34.28;17.52;;;5.30;99.90;;;7.15;98.81;100983.91;5085680;28;20039;-83
2022/01/10 09:48:55;;;;;;;41.67;17.80;;;5.50;99.90;;;6.99;98.10;100993.88;5085792;28;20408;-83
2022/01/10 09:51:26;;;;;;;36.35;17.48;;;5.30;99.90;;;6.80;97.29;101003.34;5103583;28;20047;-83
2022/01/10 09:53:59;;;;;;;41.50;19.02;;;5.30;99.90;;;6.35;97.34;101005.50;5086233;28;20032;-84
2022/01/10 09:56:33;;;;;;;42.72;17.45;;;5.10;99.90;;;6.34;98.64;101008.59;5105049;28;20032;-86
2022/01/10 09:59:01;;;;;;;33.20;16.85;;;5.00;99.90;;;6.32;99.03;101008.09;5105288;28;20016;-86
2022/01/10 10:01:32;;;;;;;36.63;17.90;;;5.00;99.90;;;6.30;99.88;101019.50;5088083;28;20039;-85
2022/01/10 10:04:02;;;;;;;40.33;18.20;;;5.00;99.90;;;6.28;99.59;101021.78;5106901;28;20036;-84
2022/01/10 10:06:32;;;;;;;35.42;17.70;;;4.90;99.90;;;6.30;100.00;101032.56;5089862;28;20054;-85
2022/01/10 10:09:07;;;;;;;36.75;16.70;;;4.80;99.90;;;6.42;100.00;101034.75;5110364;28;20031;-84
2022/01/10 10:11:53;;;;;;;40.88;18.65;;;5.00;99.90;;;6.95;100.00;101043.69;5106516;28;20161;-84
2022/01/10 10:14:22;;;;;;;37.10;17.08;;;5.30;99.90;;;7.47;98.65;101041.75;5086143;28;20035;-83
2022/01/10 10:16:55;;;;;;;39.70;18.00;;;5.70;99.90;;;7.95;96.15;101045.13;5085010;28;20536;-84
2022/01/10 10:19:29;;;;;;;38.83;18.20;;;6.10;99.90;;;8.27;93.21;101048.44;5084930;28;20115;-86
2022/01/10 10:21:59;;;;;;;42.60;17.70;;;6.40;99.90;;;8.31;91.90;101046.69;5085668;28;20548;-84
2022/01/10 10:24:26;;;;;;;39.78;16.55;;;6.60;99.90;;;8.59;90.18;101056.22;5086184;28;20149;-84
2022/01/10 10:26:56;;;;;;;37.10;16.40;;;6.80;99.90;;;8.69;89.47;101047.47;5085255;28;20033;-85